Hovedside
METAR-TAF:

METAR-TAF

Lufthavner :

Oljeplattform

Ekofisk, Norge

breddegrad: 56-33N, lengdegrad: 003-15E, høyde over havet: 3 m

Gjeldene værobservasjon

Denne rapporten ble laget for 29 minutter siden, klokken 13:20 UTC
Vind 21 kt fra Sør
Temperatur 15°C
Luftfuktighet 88%
Trykk 1021 hPa
Sikt 10 km eller mer
ingen skyer under 1500 m og ingen bygeskyer

METAR: ENLE 181320Z 18021KT CAVOK 15/13 Q1021 W15/S3

Tid: 15:49 (13:49 UTC)

Varsel

Denne rapporten ble laget for 2 timer og 49 minutter siden, klokken 11:00 UTC
Varsel gyldig fra 18. klokken 12 UTC til 18. klokken 21 UTC
Vind 18 kt fra Sør
Sikt 10 km eller mer
ingen skyer under 1500 m og ingen bygeskyer

TAF: ENLE 181100Z 1812/1821 17018KT CAVOK

Værobservasjoner og værvarsel for over 4000 flyplasser (METAR- og TAF-rapporter).

Tilgjengelige stasjoner er representert av de røde og gule prikkene på kartet.

Hold musepekeren over prikken for å se navnet på stasjonen.

Klikk så for å se værobservasjoner og -varsler.

For å forandre kartet kan du klikke på den grønne knappen med svart kryss for å zoome inn, på den grønne knappen med strek for å zoome ut, eller på de grønne pilene for å se tilstøtende kart.


METAR-TAF: